Time;durP1;ratioP1;P1;durP2;ratioP2;P2;SDS_P1;SDS_P2;PMS_P1;PMS_P2;Temp;Humidity;BMP_temperature;BMP_pressure;BME280_temperature;BME280_humidity;BME280_pressure;Samples;Min_cycle;Max_cycle;Signal;HPM_P1;HPM_P2
2022/11/01 00:01:34;;;;;;;4.38;3.10;;;8.20;59.10;;;;;;5092749;28;20016;-59
2022/11/01 00:04:00;;;;;;;5.30;3.05;;;8.10;59.20;;;;;;5094731;28;20024;-59
2022/11/01 00:06:26;;;;;;;4.75;3.33;;;8.10;59.20;;;;;;5094830;28;20016;-59
2022/11/01 00:08:51;;;;;;;4.78;3.08;;;8.10;59.30;;;;;;5094300;28;20119;-59
2022/11/01 00:11:18;;;;;;;2.92;2.50;;;8.10;59.30;;;;;;5095540;28;20030;-60
2022/11/01 00:13:45;;;;;;;2.95;2.65;;;8.10;59.40;;;;;;5094875;28;20020;-59
2022/11/01 00:16:11;;;;;;;3.38;2.92;;;8.10;59.50;;;;;;5093968;28;20118;-59
2022/11/01 00:18:37;;;;;;;4.80;3.20;;;8.10;59.60;;;;;;5093667;28;20024;-59
2022/11/01 00:21:03;;;;;;;4.28;3.20;;;8.10;59.60;;;;;;5094755;28;20107;-58
2022/11/01 00:23:28;;;;;;;3.50;2.78;;;8.10;59.70;;;;;;5094473;28;20024;-59
2022/11/01 00:25:59;;;;;;;3.70;2.75;;;8.10;59.70;;;;;;5093989;28;20036;-60
2022/11/01 00:28:25;;;;;;;2.92;2.63;;;8.10;59.80;;;;;;5094378;28;20550;-60
2022/11/01 00:30:52;;;;;;;3.03;2.60;;;8.10;59.80;;;;;;5094348;28;20027;-60
2022/11/01 00:33:18;;;;;;;3.50;2.72;;;8.10;59.70;;;;;;5094134;28;20506;-60
2022/11/01 00:35:45;;;;;;;3.03;2.72;;;8.20;59.80;;;;;;5093665;28;20070;-59
2022/11/01 00:38:12;;;;;;;3.70;2.63;;;8.20;59.70;;;;;;5094148;28;20020;-59
2022/11/01 00:40:38;;;;;;;3.25;2.70;;;8.20;59.60;;;;;;5094606;28;20464;-60
2022/11/01 00:43:04;;;;;;;3.72;2.70;;;8.30;59.60;;;;;;5093495;28;20331;-60
2022/11/01 00:45:29;;;;;;;3.85;3.10;;;8.30;59.60;;;;;;5093852;28;20024;-60
2022/11/01 00:47:55;;;;;;;3.63;2.75;;;8.40;59.50;;;;;;5083567;28;20511;-61
2022/11/01 00:50:21;;;;;;;3.20;2.60;;;8.40;59.40;;;;;;5089066;28;20024;-60
2022/11/01 00:52:46;;;;;;;4.43;2.95;;;8.40;59.30;;;;;;5093655;28;20024;-60
2022/11/01 00:55:12;;;;;;;4.82;3.10;;;8.40;59.20;;;;;;5092181;28;20024;-60
2022/11/01 00:57:38;;;;;;;4.22;2.95;;;8.40;59.10;;;;;;5093971;28;20024;-60
2022/11/01 01:00:04;;;;;;;5.18;3.40;;;8.40;59.10;;;;;;5093646;28;20524;-60
2022/11/01 01:02:30;;;;;;;3.67;3.10;;;8.30;59.20;;;;;;5094456;28;20020;-60
2022/11/01 01:04:56;;;;;;;4.65;2.83;;;8.30;59.30;;;;;;5085989;28;20028;-59
2022/11/01 01:07:21;;;;;;;5.43;3.38;;;8.20;59.30;;;;;;5093962;28;20028;-60
2022/11/01 01:09:47;;;;;;;4.60;3.50;;;8.20;59.30;;;;;;5093823;28;20435;-60
2022/11/01 01:12:12;;;;;;;5.40;4.10;;;8.10;59.30;;;;;;5093707;28;20491;-59
2022/11/01 01:14:38;;;;;;;5.40;3.80;;;8.00;59.30;;;;;;5093180;28;20027;-60
2022/11/01 01:17:04;;;;;;;6.30;3.50;;;7.90;59.40;;;;;;5092959;28;20031;-59
2022/11/01 01:19:30;;;;;;;4.70;3.40;;;7.80;59.60;;;;;;5093590;28;20024;-59
2022/11/01 01:21:56;;;;;;;5.70;3.63;;;7.80;59.80;;;;;;5093304;28;20368;-60
2022/11/01 01:24:22;;;;;;;4.78;3.33;;;7.70;59.90;;;;;;5092312;28;20031;-60
2022/11/01 01:26:47;;;;;;;5.03;3.60;;;7.70;60.00;;;;;;5093366;28;20024;-60
2022/11/01 01:29:15;;;;;;;4.53;3.45;;;7.60;60.20;;;;;;5092900;28;20032;-60
2022/11/01 01:31:40;;;;;;;4.72;3.20;;;7.60;60.30;;;;;;5093354;28;20063;-60
2022/11/01 01:34:06;;;;;;;5.07;3.28;;;7.50;60.40;;;;;;5092744;28;20024;-59
2022/11/01 01:36:32;;;;;;;5.03;3.75;;;7.50;60.50;;;;;;5093444;28;20024;-60
2022/11/01 01:38:57;;;;;;;4.53;3.30;;;7.50;60.50;;;;;;5092404;28;20039;-60
2022/11/01 01:44:44;;;;;;;3.45;3.10;;;7.50;60.70;;;;;;5080800;28;20038;-59
2022/11/01 01:47:14;;;;;;;4.78;3.72;;;7.40;60.70;;;;;;5093207;28;20020;-60
2022/11/01 01:49:40;;;;;;;5.20;3.50;;;7.40;60.90;;;;;;5092506;28;20024;-60
2022/11/01 01:52:06;;;;;;;4.65;3.60;;;7.40;61.00;;;;;;5093015;28;20589;-60
2022/11/01 01:54:31;;;;;;;4.38;2.90;;;7.30;61.00;;;;;;5092103;28;20164;-60
2022/11/01 01:56:58;;;;;;;4.55;3.00;;;7.30;61.20;;;;;;5092798;28;20391;-60
2022/11/01 01:59:24;;;;;;;4.65;3.40;;;7.30;61.30;;;;;;5092497;28;20055;-60
2022/11/01 02:01:50;;;;;;;5.78;3.47;;;7.30;61.40;;;;;;5092293;28;20012;-60
2022/11/01 02:04:33;;;;;;;5.78;3.75;;;7.30;61.30;;;;;;5092062;28;20042;-60
2022/11/01 02:07:00;;;;;;;3.47;3.00;;;7.30;61.40;;;;;;5080792;28;20019;-60
2022/11/01 02:09:26;;;;;;;3.55;2.80;;;7.30;61.40;;;;;;5092018;28;20376;-60
2022/11/01 02:11:52;;;;;;;4.32;3.30;;;7.30;61.50;;;;;;5092669;28;20027;-60
2022/11/01 02:14:20;;;;;;;5.25;3.53;;;7.30;61.50;;;;;;5091671;28;20028;-59
2022/11/01 02:17:00;;;;;;;5.65;3.90;;;7.30;61.60;;;;;;5092660;28;20020;-60
2022/11/01 02:20:04;;;;;;;4.47;3.50;;;7.20;61.50;;;;;;5091732;28;20479;-60
2022/11/01 02:22:42;;;;;;;5.45;4.03;;;7.20;61.60;;;;;;5092262;28;20028;-60
2022/11/01 02:25:59;;;;;;;4.97;3.63;;;7.20;61.70;;;;;;5091473;28;20028;-60
2022/11/01 02:28:51;;;;;;;5.25;4.10;;;7.10;61.80;;;;;;5083532;28;20036;-60
2022/11/01 02:31:41;;;;;;;4.63;3.65;;;7.10;62.00;;;;;;5080272;28;20066;-60
2022/11/01 02:34:29;;;;;;;5.28;3.20;;;7.10;62.90;;;;;;5091270;28;20153;-59
2022/11/01 02:37:19;;;;;;;4.43;3.58;;;7.00;62.20;;;;;;5091833;28;20055;-60
2022/11/01 02:39:52;;;;;;;5.70;3.70;;;7.00;62.30;;;;;;5050637;28;20456;-60
2022/11/01 02:42:22;;;;;;;6.07;3.60;;;7.00;62.40;;;;;;5091878;28;20024;-60
2022/11/01 02:44:53;;;;;;;4.63;3.58;;;7.00;62.50;;;;;;5091483;28;20062;-59
2022/11/01 02:47:19;;;;;;;4.25;3.30;;;7.00;62.60;;;;;;5091634;28;20024;-60
2022/11/01 02:49:49;;;;;;;4.88;3.30;;;7.00;62.70;;;;;;5086044;28;20028;-60
2022/11/01 02:52:23;;;;;;;4.72;3.53;;;7.00;62.80;;;;;;5091504;28;20360;-60
2022/11/01 02:54:54;;;;;;;4.68;3.30;;;7.00;62.90;;;;;;5089904;28;20072;-60
2022/11/01 02:57:49;;;;;;;;;;;7.00;63.10;;;;;;5092213;28;20028;-59
2022/11/01 03:00:20;;;;;;;4.55;3.40;;;7.00;63.30;;;;;;5060836;28;20368;-60
2022/11/01 03:02:47;;;;;;;4.28;3.00;;;7.00;63.20;;;;;;5091542;28;20024;-60
2022/11/01 03:05:20;;;;;;;4.72;3.22;;;7.00;63.40;;;;;;5091252;28;20100;-60
2022/11/01 03:07:51;;;;;;;4.68;3.20;;;7.00;63.20;;;;;;5091179;28;20040;-60
2022/11/01 03:10:21;;;;;;;4.57;2.80;;;7.00;63.20;;;;;;5091963;28;20024;-60
2022/11/01 03:13:20;;;;;;;4.75;3.03;;;7.00;63.30;;;;;;5073439;28;20020;-60
2022/11/01 03:15:55;;;;;;;3.70;3.05;;;7.10;63.30;;;;;;5090294;28;20036;-58
2022/11/01 03:18:35;;;;;;;3.67;2.88;;;7.10;63.40;;;;;;5091908;28;20098;-60
2022/11/01 03:21:18;;;;;;;4.93;3.42;;;7.00;63.30;;;;;;5091296;28;20016;-60
2022/11/01 03:23:54;;;;;;;4.75;3.38;;;7.10;63.40;;;;;;5090300;28;20020;-59
2022/11/01 03:26:29;;;;;;;4.53;3.35;;;7.10;63.40;;;;;;5090282;28;20129;-60
2022/11/01 03:28:59;;;;;;;3.97;3.25;;;7.10;63.50;;;;;;5090773;28;20141;-60
2022/11/01 03:31:30;;;;;;;3.60;3.13;;;7.00;63.60;;;;;;5091701;28;20102;-60
2022/11/01 03:34:05;;;;;;;4.55;3.42;;;7.00;63.70;;;;;;5090747;28;20043;-59
2022/11/01 03:36:37;;;;;;;4.97;3.30;;;7.00;63.80;;;;;;5066240;28;20028;-60
2022/11/01 03:39:10;;;;;;;3.50;2.97;;;7.00;63.80;;;;;;5095925;28;20095;-60
2022/11/01 03:41:42;;;;;;;4.78;3.50;;;7.00;64.00;;;;;;5095659;28;20108;-59
2022/11/01 03:44:11;;;;;;;4.22;3.17;;;7.00;64.00;;;;;;5093593;28;20479;-59
2022/11/01 03:46:37;;;;;;;4.00;3.45;;;7.00;64.10;;;;;;5095341;28;20020;-60
2022/11/01 03:49:03;;;;;;;3.55;3.22;;;7.00;64.20;;;;;;5095190;28;20020;-60
2022/11/01 03:51:29;;;;;;;4.35;3.17;;;7.00;64.30;;;;;;5095265;28;20031;-59
2022/11/01 03:53:54;;;;;;;4.50;3.30;;;7.00;64.30;;;;;;5094853;28;20427;-60
2022/11/01 03:56:21;;;;;;;3.85;3.03;;;7.00;64.40;;;;;;5094635;28;20116;-60
2022/11/01 03:58:47;;;;;;;4.95;3.70;;;6.90;64.40;;;;;;5095503;28;20017;-59
2022/11/01 04:01:15;;;;;;;4.85;3.50;;;6.90;64.40;;;;;;5094867;28;20698;-59
2022/11/01 04:03:41;;;;;;;5.20;3.65;;;6.90;64.40;;;;;;5094467;28;20058;-60
2022/11/01 04:06:07;;;;;;;5.40;3.60;;;6.90;64.50;;;;;;5094611;28;20075;-59
2022/11/01 04:08:33;;;;;;;5.05;3.47;;;6.80;64.50;;;;;;5095401;28;20035;-60
2022/11/01 04:10:59;;;;;;;4.53;3.50;;;6.80;64.70;;;;;;5094901;28;20066;-59
2022/11/01 04:13:25;;;;;;;4.55;3.30;;;6.80;64.60;;;;;;5094264;28;20051;-60
2022/11/01 04:21:22;;;;;;;3.97;2.90;;;6.80;64.80;;;;;;5094591;28;20035;-60
2022/11/01 04:23:48;;;;;;;4.68;3.45;;;6.80;64.90;;;;;;5094028;28;20387;-60
2022/11/01 04:26:16;;;;;;;6.00;3.90;;;6.80;64.90;;;;;;5093445;28;20433;-60
2022/11/01 04:28:55;;;;;;;5.97;4.05;;;6.80;65.00;;;;;;5094851;28;20030;-60
2022/11/01 04:31:26;;;;;;;5.63;3.78;;;6.70;64.90;;;;;;5082402;28;20032;-60
2022/11/01 04:33:51;;;;;;;4.82;3.63;;;6.70;65.00;;;;;;5094377;28;20399;-60
2022/11/01 04:36:17;;;;;;;4.90;3.40;;;6.70;65.10;;;;;;5094247;28;20039;-60
2022/11/01 04:38:43;;;;;;;3.90;3.08;;;6.70;65.20;;;;;;5094170;28;20051;-59
2022/11/01 04:41:08;;;;;;;3.78;2.85;;;6.70;65.40;;;;;;5094395;28;20116;-59
2022/11/01 04:43:34;;;;;;;5.13;3.28;;;6.70;65.40;;;;;;5090217;28;20028;-60
2022/11/01 04:45:59;;;;;;;4.60;3.15;;;6.70;65.40;;;;;;5093706;28;20024;-60
2022/11/01 04:48:26;;;;;;;5.78;3.83;;;6.70;65.40;;;;;;5092519;28;20039;-60
2022/11/01 04:50:52;;;;;;;4.68;3.30;;;6.70;65.40;;;;;;5093844;28;20024;-60
2022/11/01 04:53:18;;;;;;;4.30;3.33;;;6.70;65.50;;;;;;5094257;28;20029;-60
2022/11/01 04:55:43;;;;;;;5.35;3.60;;;6.70;65.60;;;;;;5095107;28;20020;-59
2022/11/01 04:58:09;;;;;;;5.35;3.35;;;6.70;65.60;;;;;;5093319;28;20073;-59
2022/11/01 05:00:36;;;;;;;5.22;3.67;;;6.70;65.60;;;;;;5094808;28;20073;-59
2022/11/01 05:03:03;;;;;;;5.55;4.30;;;6.70;65.70;;;;;;5093585;28;20024;-57
2022/11/01 05:05:30;;;;;;;5.05;3.47;;;6.70;65.80;;;;;;5094681;28;20020;-59
2022/11/01 05:08:04;;;;;;;5.28;3.90;;;6.60;65.80;;;;;;5093026;28;20379;-59
2022/11/01 05:10:30;;;;;;;5.50;3.80;;;6.70;66.00;;;;;;5094671;28;20023;-59
2022/11/01 05:12:56;;;;;;;6.68;3.80;;;6.60;66.00;;;;;;5094405;28;20031;-59
2022/11/01 05:15:22;;;;;;;4.63;3.30;;;6.70;66.20;;;;;;5095392;28;20024;-59
2022/11/01 05:17:47;;;;;;;7.15;4.00;;;6.70;66.20;;;;;;5093759;28;20044;-59
2022/11/01 05:20:13;;;;;;;5.30;3.60;;;6.70;66.30;;;;;;5093931;28;20458;-59
2022/11/01 05:22:39;;;;;;;5.78;3.88;;;6.70;66.40;;;;;;5094472;28;20028;-59
2022/11/01 05:25:07;;;;;;;4.95;3.85;;;6.80;66.40;;;;;;5094326;28;20379;-59
2022/11/01 05:27:33;;;;;;;8.13;4.38;;;6.90;66.40;;;;;;5094765;28;20034;-58
2022/11/01 05:29:58;;;;;;;5.50;4.15;;;6.90;66.40;;;;;;5086769;28;20099;-59
2022/11/01 05:32:24;;;;;;;6.82;4.18;;;7.00;66.40;;;;;;5093238;28;20054;-59
2022/11/01 05:34:49;;;;;;;7.97;4.25;;;7.00;66.30;;;;;;5094010;28;20031;-59
2022/11/01 05:37:15;;;;;;;6.10;4.10;;;7.10;66.40;;;;;;5092507;28;20031;-59
2022/11/01 05:39:41;;;;;;;6.38;4.05;;;7.10;66.40;;;;;;5089187;28;20019;-58
2022/11/01 05:42:06;;;;;;;4.47;3.58;;;7.20;66.40;;;;;;5088648;28;20136;-59
2022/11/01 05:44:32;;;;;;;4.63;3.58;;;7.30;66.50;;;;;;5080256;28;20072;-59
2022/11/01 05:46:58;;;;;;;6.72;3.50;;;7.30;66.40;;;;;;5080378;28;20028;-60
2022/11/01 05:49:24;;;;;;;4.88;3.85;;;7.40;66.40;;;;;;5083636;28;20423;-59
2022/11/01 05:51:49;;;;;;;5.93;3.97;;;7.50;66.10;;;;;;5084500;28;20470;-59
2022/11/01 05:54:15;;;;;;;5.10;3.33;;;7.60;66.10;;;;;;5090289;28;20412;-59
2022/11/01 05:56:40;;;;;;;3.58;3.05;;;7.70;66.00;;;;;;5080884;28;20055;-59
2022/11/01 05:59:06;;;;;;;5.95;3.72;;;7.70;66.00;;;;;;5079098;28;20031;-59
2022/11/01 06:01:32;;;;;;;3.85;3.13;;;7.80;66.00;;;;;;5087562;28;20787;-59
2022/11/01 06:04:00;;;;;;;3.58;2.90;;;7.90;66.10;;;;;;5090066;28;20032;-59
2022/11/01 06:06:30;;;;;;;3.75;3.17;;;7.90;66.10;;;;;;5088838;28;20031;-59
2022/11/01 06:08:56;;;;;;;3.38;3.03;;;8.10;66.20;;;;;;5088117;28;20024;-57
2022/11/01 06:11:22;;;;;;;5.40;3.35;;;8.10;66.00;;;;;;5082727;28;20034;-59
2022/11/01 06:13:53;;;;;;;3.92;3.10;;;8.20;66.00;;;;;;5088625;28;20426;-59
2022/11/01 06:16:18;;;;;;;3.42;2.88;;;8.30;66.60;;;;;;5089465;28;20024;-60
2022/11/01 06:18:44;;;;;;;4.22;3.00;;;8.40;65.90;;;;;;5090255;28;20028;-59
2022/11/01 06:21:09;;;;;;;4.75;3.15;;;8.40;65.90;;;;;;5084458;28;20024;-60
2022/11/01 06:23:35;;;;;;;3.17;2.88;;;8.50;66.00;;;;;;5089743;28;20032;-58
2022/11/01 06:26:02;;;;;;;3.97;3.05;;;8.50;65.70;;;;;;5084756;28;20380;-60
2022/11/01 06:28:28;;;;;;;5.00;3.25;;;8.60;65.80;;;;;;5086222;28;20051;-60
2022/11/01 06:30:53;;;;;;;5.38;3.30;;;8.60;65.50;;;;;;5086276;28;21529;-59
2022/11/01 06:33:19;;;;;;;4.97;3.40;;;8.60;65.60;;;;;;5083109;28;20402;-60
2022/11/01 06:35:45;;;;;;;6.07;3.70;;;8.60;65.50;;;;;;5086210;28;20036;-59
2022/11/01 06:38:10;;;;;;;4.25;3.28;;;8.70;65.40;;;;;;5087833;28;20086;-59
2022/11/01 06:40:36;;;;;;;4.63;3.05;;;8.60;65.10;;;;;;5083960;28;20020;-59
2022/11/01 06:43:04;;;;;;;4.88;3.20;;;8.60;65.20;;;;;;5082360;28;20103;-60
2022/11/01 06:45:31;;;;;;;4.18;2.90;;;8.60;65.00;;;;;;5081566;28;20039;-59
2022/11/01 06:47:57;;;;;;;3.85;3.10;;;8.60;65.10;;;;;;5080398;28;20039;-60
2022/11/01 06:50:22;;;;;;;4.38;3.10;;;8.60;65.20;;;;;;5079068;28;20066;-59
2022/11/01 06:52:48;;;;;;;4.00;3.10;;;8.60;65.10;;;;;;5079798;28;20107;-57
2022/11/01 06:55:14;;;;;;;6.22;3.70;;;8.60;65.20;;;;;;5066489;28;20058;-60
2022/11/01 06:57:40;;;;;;;4.15;2.72;;;8.50;65.10;;;;;;5075418;28;20016;-58
2022/11/01 07:00:08;;;;;;;3.55;2.83;;;8.50;65.10;;;;;;5075717;28;20055;-59
2022/11/01 07:02:33;;;;;;;4.65;3.00;;;8.50;65.10;;;;;;5081274;28;20031;-59
2022/11/01 07:04:59;;;;;;;5.38;3.33;;;8.50;65.10;;;;;;5076818;28;20758;-59
2022/11/01 07:07:25;;;;;;;5.20;3.20;;;8.50;65.10;;;;;;5064798;28;20031;-59
2022/11/01 07:09:50;;;;;;;4.00;3.50;;;8.50;65.00;;;;;;5074002;28;20028;-59
2022/11/01 07:12:16;;;;;;;3.95;3.15;;;8.50;65.20;;;;;;5073760;28;20077;-59
2022/11/01 07:14:42;;;;;;;5.53;3.50;;;8.50;65.20;;;;;;5069385;28;20047;-59
2022/11/01 07:17:07;;;;;;;4.18;3.00;;;8.50;65.10;;;;;;5072763;28;20028;-59
2022/11/01 07:19:33;;;;;;;4.50;3.17;;;8.40;65.20;;;;;;5072001;28;20028;-59
2022/11/01 07:21:59;;;;;;;3.72;3.08;;;8.40;65.30;;;;;;5076337;28;20020;-60
2022/11/01 07:24:24;;;;;;;3.63;2.75;;;8.40;65.50;;;;;;5075998;28;21614;-59
2022/11/01 07:26:50;;;;;;;4.07;3.17;;;8.40;65.40;;;;;;5067597;28;20067;-58
2022/11/01 07:29:15;;;;;;;4.97;3.60;;;8.40;65.50;;;;;;5075110;28;20425;-59
2022/11/01 07:31:41;;;;;;;3.97;3.08;;;8.40;65.50;;;;;;5077086;28;20047;-62
2022/11/01 07:34:07;;;;;;;4.30;3.22;;;8.50;65.50;;;;;;5072113;28;20078;-60
2022/11/01 07:36:32;;;;;;;7.10;3.95;;;8.50;65.50;;;;;;5059042;28;20043;-59
2022/11/01 07:38:58;;;;;;;4.72;3.15;;;8.50;65.70;;;;;;5057785;28;20027;-62
2022/11/01 07:41:24;;;;;;;4.10;3.35;;;8.50;65.50;;;;;;5067571;28;20028;-61
2022/11/01 07:43:49;;;;;;;3.95;3.25;;;8.50;65.50;;;;;;5064844;28;20105;-59
2022/11/01 07:46:15;;;;;;;4.35;3.55;;;8.50;66.20;;;;;;5055759;28;20032;-55
2022/11/01 07:48:41;;;;;;;4.18;3.13;;;8.50;65.70;;;;;;5066659;28;22562;-60
2022/11/01 07:51:08;;;;;;;4.13;2.83;;;8.50;65.70;;;;;;5071627;28;20040;-60
2022/11/01 07:53:34;;;;;;;4.25;3.53;;;8.50;65.90;;;;;;5067292;28;20043;-59
2022/11/01 07:56:00;;;;;;;5.68;3.75;;;8.50;66.00;;;;;;5066370;28;20032;-59
2022/11/01 07:58:27;;;;;;;5.28;3.83;;;8.50;66.00;;;;;;5068247;28;20081;-60
2022/11/01 08:00:52;;;;;;;6.47;3.97;;;8.50;66.00;;;;;;5064286;28;20132;-56
2022/11/01 08:03:18;;;;;;;3.95;3.13;;;8.50;66.20;;;;;;5069928;28;20024;-62
2022/11/01 08:05:45;;;;;;;4.30;3.20;;;8.50;66.40;;;;;;5068798;28;20774;-61
2022/11/01 08:08:12;;;;;;;7.25;3.38;;;8.50;66.30;;;;;;5060094;28;20089;-60
2022/11/01 08:10:38;;;;;;;4.30;3.30;;;8.60;66.20;;;;;;5066532;28;20039;-60
2022/11/01 08:13:15;;;;;;;4.50;3.47;;;8.60;66.30;;;;;;5067967;28;20036;-60
2022/11/01 08:15:40;;;;;;;3.90;3.10;;;8.60;66.40;;;;;;5066515;28;20123;-62
2022/11/01 08:18:06;;;;;;;4.72;3.05;;;8.70;66.60;;;;;;5064906;28;20033;-57
2022/11/01 08:20:32;;;;;;;4.40;3.30;;;8.70;66.60;;;;;;5062798;28;20040;-59
2022/11/01 08:22:58;;;;;;;6.40;3.35;;;8.70;66.60;;;;;;5068865;28;20031;-58
2022/11/01 08:25:24;;;;;;;4.47;3.13;;;8.80;66.60;;;;;;5072945;28;20372;-60
2022/11/01 08:27:50;;;;;;;4.95;3.38;;;8.80;66.70;;;;;;5071772;28;20025;-57
2022/11/01 08:30:16;;;;;;;5.13;3.35;;;8.80;66.70;;;;;;5071365;28;21815;-58
2022/11/01 08:32:42;;;;;;;4.18;3.50;;;8.80;66.90;;;;;;5060874;28;20047;-58
2022/11/01 08:35:10;;;;;;;4.40;3.20;;;8.80;66.80;;;;;;5065888;28;20032;-59
2022/11/01 08:37:37;;;;;;;3.95;3.00;;;8.90;66.90;;;;;;5064741;28;20564;-58
2022/11/01 08:40:03;;;;;;;4.63;2.90;;;8.90;67.60;;;;;;5066747;28;20020;-56
2022/11/01 08:42:29;;;;;;;4.45;3.10;;;8.90;67.60;;;;;;5059376;28;20024;-58
2022/11/01 08:44:54;;;;;;;4.43;3.38;;;8.90;66.90;;;;;;5070107;28;20078;-57
2022/11/01 08:47:21;;;;;;;5.18;3.60;;;9.00;67.00;;;;;;5060808;28;21122;-59
2022/11/01 08:49:46;;;;;;;4.38;3.25;;;9.00;67.10;;;;;;5062243;28;20028;-60
2022/11/01 08:52:12;;;;;;;4.82;3.10;;;9.00;67.10;;;;;;5065259;28;20031;-59
2022/11/01 08:54:37;;;;;;;3.60;2.80;;;9.00;67.10;;;;;;5075746;28;20029;-61
2022/11/01 08:57:03;;;;;;;2.80;2.42;;;9.10;67.00;;;;;;5070863;28;20032;-61
2022/11/01 08:59:29;;;;;;;3.15;2.58;;;9.10;67.00;;;;;;5062585;28;20108;-59
2022/11/01 09:01:54;;;;;;;3.08;2.70;;;9.10;67.00;;;;;;5061072;28;20117;-59
2022/11/01 09:04:20;;;;;;;3.97;2.85;;;9.20;67.00;;;;;;5071250;28;20063;-61
2022/11/01 09:06:46;;;;;;;3.28;2.78;;;9.20;67.10;;;;;;5069060;28;20043;-59
2022/11/01 09:09:11;;;;;;;5.18;3.15;;;9.20;67.00;;;;;;5065143;28;20036;-59
2022/11/01 09:11:37;;;;;;;3.92;3.00;;;9.30;67.00;;;;;;5060599;28;20503;-59
2022/11/01 09:14:03;;;;;;;4.43;2.85;;;9.30;66.90;;;;;;5060274;28;21031;-60
2022/11/01 09:16:29;;;;;;;2.72;2.33;;;9.30;66.80;;;;;;5060863;28;20028;-61
2022/11/01 09:18:56;;;;;;;3.80;3.00;;;9.40;66.70;;;;;;5065801;28;20031;-58
2022/11/01 09:21:22;;;;;;;4.00;2.70;;;9.40;66.70;;;;;;5055327;28;20111;-57
2022/11/01 09:23:47;;;;;;;3.05;2.65;;;9.50;66.60;;;;;;5059990;28;20508;-61
2022/11/01 09:26:13;;;;;;;3.75;2.60;;;9.50;66.60;;;;;;5063760;28;20032;-59
2022/11/01 09:28:39;;;;;;;2.85;2.30;;;9.50;66.50;;;;;;5056773;28;20044;-59
2022/11/01 09:31:07;;;;;;;3.05;2.65;;;9.60;66.40;;;;;;5065777;28;20036;-57
2022/11/01 09:33:33;;;;;;;2.90;2.50;;;9.60;66.30;;;;;;5059002;28;20043;-55
2022/11/01 09:35:59;;;;;;;3.03;2.35;;;9.60;66.20;;;;;;5058919;28;20023;-56
2022/11/01 09:38:25;;;;;;;2.80;2.45;;;9.70;66.20;;;;;;5063621;28;20028;-58
2022/11/01 09:41:23;;;;;;;3.05;2.60;;;9.70;66.00;;;;;;5058018;28;20024;-57
2022/11/01 09:43:51;;;;;;;2.83;2.40;;;9.70;65.70;;;;;;5054243;28;20035;-60
2022/11/01 09:46:20;;;;;;;2.63;2.25;;;9.80;65.90;;;;;;5058741;28;20498;-56
2022/11/01 09:48:46;;;;;;;2.70;2.50;;;9.80;66.00;;;;;;5058065;28;20028;-58
2022/11/01 09:51:19;;;;;;;2.47;2.20;;;9.90;65.90;;;;;;5059461;28;20028;-59
2022/11/01 09:53:45;;;;;;;2.75;2.10;;;9.90;65.70;;;;;;5063342;28;21568;-58
2022/11/01 09:56:21;;;;;;;2.28;1.95;;;9.90;65.50;;;;;;5060724;28;20025;-58
2022/11/01 09:59:11;;;;;;;2.50;2.30;;;10.00;65.60;;;;;;5064685;28;20085;-56
2022/11/01 10:01:44;;;;;;;2.20;2.00;;;10.00;65.10;;;;;;5058176;28;20732;-57
2022/11/01 10:04:34;;;;;;;2.83;2.00;;;10.00;65.00;;;;;;5062231;28;20020;-56
2022/11/01 10:07:08;;;;;;;2.10;1.98;;;10.10;64.70;;;;;;5063027;28;20024;-59
2022/11/01 12:09:47;;;;;;;1.30;1.27;;;10.20;59.90;;;;;;5040411;28;21131;-56
2022/11/01 12:12:18;;;;;;;1.33;1.23;;;10.20;60.50;;;;;;5030038;28;20045;-58
2022/11/01 12:14:44;;;;;;;1.20;1.20;;;10.20;61.20;;;;;;5029031;28;20042;-57
2022/11/01 12:17:31;;;;;;;2.17;1.42;;;10.30;61.80;;;;;;5020329;28;20360;-57
2022/11/01 12:20:12;;;;;;;1.50;1.38;;;10.40;61.90;;;;;;5020618;28;20083;-57
2022/11/01 12:22:43;;;;;;;1.52;1.42;;;10.50;62.40;;;;;;5011997;28;20060;-57
2022/11/01 12:25:29;;;;;;;1.67;1.20;;;10.60;62.40;;;;;;5022179;28;20036;-58
2022/11/01 12:28:25;;;;;;;1.10;1.10;;;10.70;62.30;;;;;;5025226;28;20052;-55
2022/11/01 12:30:55;;;;;;;1.50;1.40;;;10.70;62.30;;;;;;5015148;28;20526;-57
2022/11/01 12:33:29;;;;;;;1.30;1.30;;;10.80;62.40;;;;;;5013468;28;20037;-57
2022/11/01 12:35:57;;;;;;;1.70;1.60;;;10.90;62.40;;;;;;5018426;28;20026;-58
2022/11/01 12:38:25;;;;;;;2.80;1.52;;;11.00;62.40;;;;;;5022683;28;20692;-58
2022/11/01 12:40:53;;;;;;;1.35;1.25;;;11.10;62.20;;;;;;5017791;28;20040;-56
2022/11/01 12:43:23;;;;;;;1.73;1.20;;;11.20;61.90;;;;;;5018484;28;20693;-57
2022/11/01 12:46:11;;;;;;;1.98;1.63;;;11.20;61.80;;;;;;5025224;28;20033;-56
2022/11/01 12:48:54;;;;;;;1.58;1.38;;;11.20;61.70;;;;;;5012452;28;20555;-53
2022/11/01 12:51:26;;;;;;;1.40;1.30;;;11.30;61.50;;;;;;5025101;28;20025;-56
2022/11/01 12:54:04;;;;;;;1.40;1.30;;;11.30;61.30;;;;;;5027269;28;20029;-55
2022/11/01 12:56:30;;;;;;;0.95;0.90;;;11.40;61.10;;;;;;5016857;28;20040;-56
2022/11/01 12:58:56;;;;;;;1.35;1.23;;;11.40;61.10;;;;;;5020892;28;20512;-56
2022/11/01 13:01:58;;;;;;;2.17;1.27;;;11.40;61.10;;;;;;5021674;28;20048;-55
2022/11/01 13:04:47;;;;;;;1.20;1.10;;;11.50;61.10;;;;;;5029672;28;20041;-55
2022/11/01 13:07:28;;;;;;;1.10;1.10;;;11.50;60.90;;;;;;5022437;28;20504;-56
2022/11/01 13:10:16;;;;;;;1.15;1.10;;;11.50;60.90;;;;;;5015580;28;20049;-56
2022/11/01 13:12:47;;;;;;;1.50;1.40;;;11.60;60.70;;;;;;5024455;28;20029;-58
2022/11/01 13:15:25;;;;;;;1.58;1.00;;;11.60;60.50;;;;;;5016325;28;20033;-57
2022/11/01 13:18:13;;;;;;;2.83;1.13;;;11.60;60.40;;;;;;5016780;28;20136;-54
2022/11/01 13:21:09;;;;;;;1.08;1.08;;;11.60;60.20;;;;;;5000584;28;20029;-58
2022/11/01 13:23:48;;;;;;;1.40;1.30;;;11.70;60.30;;;;;;5003614;28;21917;-58
2022/11/01 13:26:24;;;;;;;1.25;1.13;;;11.70;60.40;;;;;;4999492;28;20141;-58
2022/11/01 13:29:08;;;;;;;1.52;1.42;;;11.70;60.20;;;;;;5009592;28;20119;-58
2022/11/01 13:32:11;;;;;;;0.77;0.77;;;11.70;60.20;;;;;;5006541;28;20049;-56
2022/11/01 13:35:16;;;;;;;1.20;1.20;;;11.70;60.00;;;;;;5003984;28;20033;-56
2022/11/01 13:38:07;;;;;;;1.08;1.02;;;11.70;60.20;;;;;;4995208;28;20407;-56
2022/11/01 13:40:56;;;;;;;1.63;1.52;;;11.70;60.20;;;;;;4995694;28;20034;-55
2022/11/01 13:43:51;;;;;;;1.25;1.15;;;11.80;60.10;;;;;;5011251;28;20399;-58
2022/11/01 13:46:20;;;;;;;1.27;1.17;;;11.80;59.80;;;;;;5007128;28;20048;-56
2022/11/01 13:49:06;;;;;;;1.00;0.93;;;11.70;59.80;;;;;;5002639;28;20166;-59
2022/11/01 13:51:47;;;;;;;1.40;1.30;;;11.80;59.70;;;;;;4999918;28;20045;-56
2022/11/01 13:54:34;;;;;;;1.38;1.20;;;11.80;59.60;;;;;;4999581;28;20029;-58
2022/11/01 13:57:13;;;;;;;1.20;1.17;;;11.80;59.40;;;;;;4988505;28;20026;-58
2022/11/01 13:59:43;;;;;;;0.98;0.98;;;11.80;59.30;;;;;;5000746;28;20675;-57
2022/11/01 14:02:27;;;;;;;1.20;1.13;;;11.80;59.30;;;;;;5007585;28;20075;-56
2022/11/01 14:05:11;;;;;;;1.35;1.08;;;11.80;59.10;;;;;;4993507;28;20030;-57
2022/11/01 14:07:43;;;;;;;1.40;1.30;;;11.90;59.20;;;;;;5008854;28;20136;-55
2022/11/01 14:10:18;;;;;;;1.45;1.45;;;11.90;59.10;;;;;;5002128;28;20029;-57
2022/11/01 14:13:05;;;;;;;1.42;1.33;;;11.90;59.00;;;;;;5000136;28;20025;-57
2022/11/01 14:15:32;;;;;;;1.60;1.50;;;11.90;58.90;;;;;;4999851;28;20048;-57
2022/11/01 14:18:02;;;;;;;1.90;1.77;;;11.90;58.90;;;;;;5005652;28;20254;-59
2022/11/01 14:20:28;;;;;;;1.92;1.83;;;11.80;58.90;;;;;;5013539;28;20044;-57
2022/11/01 14:22:55;;;;;;;2.10;1.90;;;11.80;58.90;;;;;;5003333;28;20037;-57
2022/11/01 14:25:31;;;;;;;2.97;2.20;;;11.80;58.90;;;;;;4993052;28;21630;-56
2022/11/01 14:28:15;;;;;;;2.65;2.08;;;11.80;58.90;;;;;;4996073;28;20038;-59
2022/11/01 14:30:48;;;;;;;2.35;2.15;;;11.80;58.90;;;;;;5008356;28;20025;-56
2022/11/01 14:33:17;;;;;;;2.53;2.30;;;11.80;58.90;;;;;;5010342;28;20614;-58
2022/11/01 14:35:48;;;;;;;3.22;2.40;;;11.80;58.90;;;;;;5009812;28;20078;-55
2022/11/01 14:38:19;;;;;;;2.72;2.33;;;11.70;58.80;;;;;;5004204;28;20025;-58
2022/11/01 14:40:55;;;;;;;4.38;2.83;;;11.70;58.80;;;;;;5008733;28;20052;-56
2022/11/01 14:43:29;;;;;;;4.22;3.05;;;11.70;58.80;;;;;;5005418;28;20487;-58
2022/11/01 14:46:19;;;;;;;4.10;2.60;;;11.70;58.80;;;;;;5006191;28;20056;-55
2022/11/01 14:48:54;;;;;;;3.25;2.40;;;11.70;58.90;;;;;;5002439;28;21559;-56
2022/11/01 14:51:36;;;;;;;3.08;2.67;;;11.60;58.90;;;;;;5002368;28;22186;-58
2022/11/01 14:54:13;;;;;;;2.33;2.13;;;11.60;58.90;;;;;;5006645;28;20041;-57
2022/11/01 14:56:39;;;;;;;4.18;2.45;;;11.60;58.90;;;;;;5004374;28;20026;-58
2022/11/01 14:59:31;;;;;;;3.55;2.80;;;11.60;59.00;;;;;;4996081;28;20033;-59
2022/11/01 15:02:04;;;;;;;4.93;2.92;;;11.60;59.10;;;;;;5003264;28;20463;-57
2022/11/01 15:04:40;;;;;;;5.63;3.10;;;11.60;59.30;;;;;;5006077;28;20463;-57
2022/11/01 15:07:25;;;;;;;4.10;3.00;;;11.60;59.10;;;;;;5002870;28;20167;-56
2022/11/01 15:10:04;;;;;;;3.45;2.90;;;11.60;59.10;;;;;;5004079;28;20041;-56
2022/11/01 15:12:34;;;;;;;3.97;2.88;;;11.70;59.10;;;;;;5007397;28;20048;-58
2022/11/01 15:15:00;;;;;;;3.47;2.53;;;11.70;59.10;;;;;;4998298;28;20469;-55
2022/11/01 15:17:33;;;;;;;4.15;3.13;;;11.70;59.00;;;;;;5006885;28;20107;-54
2022/11/01 15:20:00;;;;;;;3.60;2.80;;;11.70;59.00;;;;;;5004547;28;20026;-57
2022/11/01 15:22:29;;;;;;;4.53;2.80;;;11.70;59.00;;;;;;5008292;28;21266;-55